Time;durP1;ratioP1;P1;durP2;ratioP2;P2;SDS_P1;SDS_P2;PMS_P1;PMS_P2;Temp;Humidity;BMP_temperature;BMP_pressure;BME280_temperature;BME280_humidity;BME280_pressure;Samples;Min_cycle;Max_cycle;Signal;HPM_P1;HPM_P2
2024/01/22 00:01:45;;;;;;;;;0.75;0.75;;;;;13.31;43.56;101433.38;5119300;27;46266;-70
2024/01/22 00:04:11;;;;;;;;;1.00;1.00;;;;;13.13;43.55;101400.41;5118877;27;45320;-70
2024/01/22 00:06:38;;;;;;;;;0.25;0.25;;;;;13.33;43.44;101418.59;5119083;27;45445;-70
2024/01/22 00:09:04;;;;;;;;;1.00;1.00;;;;;13.41;43.68;101442.44;5119294;27;45298;-71
2024/01/22 00:11:32;;;;;;;;;1.00;1.00;;;;;13.42;43.57;101457.34;5118835;27;46206;-71
2024/01/22 00:13:59;;;;;;;;;1.00;1.00;;;;;13.38;43.69;101458.09;5118992;27;45284;-70
2024/01/22 00:16:24;;;;;;;;;1.00;1.00;;;;;13.36;43.74;101462.41;5119015;27;45383;-71
2024/01/22 00:18:50;;;;;;;;;1.00;1.00;;;;;13.31;43.93;101460.50;5119130;27;45324;-70
2024/01/22 00:21:16;;;;;;;;;1.00;1.00;;;;;13.33;43.54;101453.59;5118230;27;45287;-71
2024/01/22 00:23:42;;;;;;;;;1.00;1.00;;;;;13.33;43.77;101447.44;5118817;27;45577;-71
2024/01/22 00:26:12;;;;;;;;;1.00;1.00;;;;;13.40;43.33;101459.03;5117523;27;45587;-71
2024/01/22 00:28:38;;;;;;;;;1.25;1.00;;;;;13.40;43.51;101464.28;5119262;27;45485;-71
2024/01/22 00:31:04;;;;;;;;;2.00;2.00;;;;;13.37;43.57;101462.47;5118607;27;45351;-71
2024/01/22 00:33:29;;;;;;;;;0.75;0.75;;;;;13.36;43.50;101449.28;5118575;27;45511;-70
2024/01/22 00:35:55;;;;;;;;;1.25;1.00;;;;;13.33;43.88;101458.84;5117445;27;45649;-71
2024/01/22 00:38:20;;;;;;;;;0.00;0.00;;;;;13.35;43.92;101448.41;5117381;27;45365;-71
2024/01/22 00:40:46;;;;;;;;;2.00;1.00;;;;;13.36;43.78;101457.16;5118427;27;46011;-70
2024/01/22 00:43:11;;;;;;;;;1.00;1.00;;;;;13.35;44.08;101455.34;5116957;27;45440;-70
2024/01/22 00:45:40;;;;;;;;;1.75;1.75;;;;;13.29;43.96;101462.19;5116826;27;45423;-71
2024/01/22 00:48:07;;;;;;;;;1.00;1.00;;;;;13.27;44.05;101469.09;5117429;27;45337;-70
2024/01/22 00:50:32;;;;;;;;;1.00;1.00;;;;;13.24;44.38;101471.59;5117531;27;46086;-70
2024/01/22 00:52:58;;;;;;;;;0.75;0.00;;;;;13.22;44.53;101472.41;5117898;27;45445;-70
2024/01/22 00:55:24;;;;;;;;;1.00;1.00;;;;;13.21;44.34;101468.88;5118544;27;45491;-70
2024/01/22 00:57:49;;;;;;;;;1.00;1.00;;;;;13.20;44.24;101476.69;5118663;27;45446;-71
2024/01/22 01:00:15;;;;;;;;;1.00;1.00;;;;;13.00;44.27;101444.53;5116731;27;45447;-71
2024/01/22 01:02:41;;;;;;;;;1.00;1.00;;;;;13.11;44.26;101465.06;5118014;27;46199;-71
2024/01/22 01:05:07;;;;;;;;;1.00;1.00;;;;;13.08;44.17;101464.06;5118147;27;45676;-70
2024/01/22 01:07:33;;;;;;;;;1.00;1.00;;;;;12.93;44.19;101444.34;5118177;27;45549;-71
2024/01/22 01:09:58;;;;;;;;;2.00;1.75;;;;;12.90;44.01;101438.09;5117954;27;45359;-70
2024/01/22 01:12:24;;;;;;;;;1.50;1.00;;;;;12.85;44.06;101432.69;5118214;27;45298;-70
2024/01/22 01:14:50;;;;;;;;;2.00;1.00;;;;;13.07;43.81;101473.66;5118572;27;45280;-70
2024/01/22 01:17:15;;;;;;;;;2.25;1.00;;;;;12.98;44.23;101460.22;5117408;27;45602;-71
2024/01/22 01:19:41;;;;;;;;;1.00;1.00;;;;;13.06;43.91;101479.72;5117935;27;46080;-70
2024/01/22 01:22:06;;;;;;;;;2.00;1.00;;;;;13.05;44.07;101470.09;5118141;27;45508;-70
2024/01/22 01:24:32;;;;;;;;;1.00;1.00;;;;;13.04;44.22;101470.91;5118218;27;45457;-70
2024/01/22 01:26:58;;;;;;;;;1.00;1.00;;;;;13.06;44.11;101478.84;5118282;27;45299;-71
2024/01/22 01:29:23;;;;;;;;;1.25;1.25;;;;;13.06;43.67;101476.22;5117850;27;45991;-70
2024/01/22 01:31:49;;;;;;;;;1.00;1.00;;;;;13.02;43.96;101469.09;5118109;27;45484;-70
2024/01/22 01:34:14;;;;;;;;;2.00;2.00;;;;;13.05;44.13;101482.28;5120871;27;45448;-71
2024/01/22 01:36:40;;;;;;;;;1.00;1.00;;;;;13.03;43.99;101470.84;5121808;27;45551;-71
2024/01/22 01:39:06;;;;;;;;;2.25;1.00;;;;;13.05;44.00;101480.59;5121150;27;45960;-71
2024/01/22 01:41:31;;;;;;;;;2.50;2.00;;;;;13.03;43.96;101470.84;5121391;27;45610;-71
2024/01/22 01:43:57;;;;;;;;;1.00;1.00;;;;;12.91;44.23;101456.50;5121689;27;45425;-71
2024/01/22 01:46:23;;;;;;;;;1.00;1.00;;;;;13.01;44.41;101475.16;5121596;27;45306;-71
2024/01/22 01:48:50;;;;;;;;;2.00;1.25;;;;;12.97;44.79;101458.44;5121659;27;45901;-71
2024/01/22 01:51:16;;;;;;;;;3.00;2.00;;;;;12.80;44.65;101415.00;5121103;27;45487;-71
2024/01/22 01:53:44;;;;;;;;;1.00;1.00;;;;;12.93;44.74;101436.47;5121249;27;45169;-71
2024/01/22 01:56:10;;;;;;;;;0.75;0.75;;;;;12.78;44.32;101421.94;5121557;27;45336;-71
2024/01/22 01:58:36;;;;;;;;;3.25;2.00;;;;;12.96;44.52;101464.50;5121044;27;45509;-71
2024/01/22 02:01:03;;;;;;;;;3.00;3.00;;;;;12.96;44.63;101461.00;5121146;27;45348;-71
2024/01/22 02:03:29;;;;;;;;;1.00;1.00;;;;;12.89;45.05;101439.81;5121049;27;45424;-71
2024/01/22 02:05:55;;;;;;;;;2.75;2.25;;;;;13.07;44.73;101454.38;5121281;27;45395;-71
2024/01/22 02:08:21;;;;;;;;;4.75;3.00;;;;;13.09;44.90;101471.97;5121169;27;45333;-71
2024/01/22 02:10:50;;;;;;;;;2.50;1.75;;;;;13.11;44.88;101470.31;5120955;27;45481;-70
2024/01/22 02:13:16;;;;;;;;;2.75;1.75;;;;;13.09;45.22;101450.09;5120948;27;45356;-71
2024/01/22 02:15:42;;;;;;;;;2.00;1.75;;;;;13.01;45.17;101448.94;5121138;27;45506;-71
2024/01/22 02:18:08;;;;;;;;;3.25;2.00;;;;;13.12;45.21;101455.44;5120632;27;45278;-71
2024/01/22 02:20:34;;;;;;;;;2.00;2.00;;;;;13.11;45.44;101472.00;5121046;27;45507;-71
2024/01/22 02:23:05;;;;;;;;;1.00;1.00;;;;;13.17;45.60;101472.25;5120831;27;45354;-71
2024/01/22 02:25:31;;;;;;;;;2.00;2.00;;;;;13.11;45.25;101456.28;5120972;27;45388;-71
2024/01/22 02:27:56;;;;;;;;;2.00;2.00;;;;;13.18;45.24;101484.50;5120263;27;45399;-71
2024/01/22 02:30:22;;;;;;;;;1.25;1.25;;;;;13.08;45.22;101464.94;5120850;27;45488;-71
2024/01/22 02:32:47;;;;;;;;;2.00;1.00;;;;;13.20;44.99;101489.81;5120619;27;45472;-71
2024/01/22 02:35:13;;;;;;;;;3.25;2.75;;;;;13.00;45.62;101476.91;5120842;27;45468;-71
2024/01/22 02:37:39;;;;;;;;;4.00;2.75;;;;;12.96;45.48;101480.25;5120416;27;45585;-70
2024/01/22 02:40:05;;;;;;;;;4.00;2.50;;;;;13.04;45.66;101502.41;5120510;27;45520;-71
2024/01/22 02:42:31;;;;;;;;;3.00;2.00;;;;;12.92;45.63;101480.97;5119213;27;45454;-71
2024/01/22 02:44:57;;;;;;;;;2.00;2.00;;;;;13.12;45.73;101507.91;5120066;27;45464;-71
2024/01/22 02:47:22;;;;;;;;;2.25;2.00;;;;;13.16;45.45;101501.94;5120383;27;45443;-71
2024/01/22 02:49:48;;;;;;;;;2.75;2.75;;;;;13.00;45.51;101479.53;5120462;27;45348;-71
2024/01/22 02:52:13;;;;;;;;;2.75;2.50;;;;;13.24;45.70;101526.69;5118882;27;45406;-71
2024/01/22 02:54:39;;;;;;;;;2.50;2.00;;;;;13.18;45.88;101523.88;5120476;27;45320;-71
2024/01/22 02:57:05;;;;;;;;;3.25;2.00;;;;;13.24;45.85;101536.31;5120266;27;45433;-71
2024/01/22 02:59:30;;;;;;;;;2.00;1.00;;;;;13.24;45.82;101534.56;5120154;27;45474;-71
2024/01/22 03:01:56;;;;;;;;;1.75;1.50;;;;;13.14;45.73;101529.84;5120515;27;45317;-71
2024/01/22 03:04:21;;;;;;;;;1.00;1.00;;;;;13.24;45.64;101541.56;5120680;27;45566;-71
2024/01/22 03:06:47;;;;;;;;;5.00;3.50;;;;;13.22;45.87;101536.25;5119857;27;45513;-71
2024/01/22 03:09:12;;;;;;;;;3.50;2.75;;;;;13.27;45.96;101537.31;5118676;27;45266;-71
2024/01/22 03:11:38;;;;;;;;;3.00;2.75;;;;;13.24;45.84;101526.69;5120184;27;45403;-71
2024/01/22 03:14:04;;;;;;;;;2.00;2.00;;;;;13.33;45.67;101524.44;5120319;27;45341;-71
2024/01/22 03:16:29;;;;;;;;;1.00;1.00;;;;;13.09;45.92;101457.94;5119696;27;45317;-71
2024/01/22 03:18:55;;;;;;;;;1.25;0.50;;;;;13.47;45.85;101508.28;5120263;27;45525;-71
2024/01/22 03:21:21;;;;;;;;;2.00;1.00;;;;;13.55;45.43;101493.66;5120035;27;45402;-71
2024/01/22 03:23:46;;;;;;;;;1.00;1.00;;;;;13.62;45.10;101482.50;5120116;27;45423;-71
2024/01/22 03:26:22;;;;;;;;;1.50;1.50;;;;;13.66;44.97;101462.50;5119640;27;45233;-71
2024/01/22 03:28:49;;;;;;;;;0.50;0.50;;;;;13.71;45.23;101445.16;5119766;27;45217;-71
2024/01/22 03:31:25;;;;;;;;;1.00;1.00;;;;;13.67;44.63;101407.41;5119810;27;45346;-71
2024/01/22 03:33:52;;;;;;;;;1.00;1.00;;;;;13.88;44.54;101429.91;5119960;27;46092;-71
2024/01/22 03:36:18;;;;;;;;;1.00;1.00;;;;;13.85;44.41;101427.22;5119470;27;45376;-71
2024/01/22 03:38:44;;;;;;;;;1.00;1.00;;;;;13.91;44.32;101438.78;5119484;27;45428;-70
2024/01/22 03:41:10;;;;;;;;;2.00;2.00;;;;;13.98;44.28;101431.97;5119741;27;45263;-71
2024/01/22 03:43:36;;;;;;;;;1.00;1.00;;;;;13.99;44.09;101439.03;5118356;27;45237;-71
2024/01/22 03:46:01;;;;;;;;;2.00;1.50;;;;;13.98;44.35;101441.59;5119351;27;46055;-71
2024/01/22 03:48:27;;;;;;;;;2.00;2.00;;;;;13.92;44.46;101437.94;5116571;27;45401;-70
2024/01/22 03:50:54;;;;;;;;;1.00;1.00;;;;;13.71;44.23;101418.91;5098794;27;45314;-70
2024/01/22 03:53:30;;;;;;;;;2.00;2.00;;;;;13.86;44.29;101447.38;5099203;27;45615;-69
2024/01/22 03:55:57;;;;;;;;;1.00;1.00;;;;;13.86;44.59;101455.25;5098032;27;46119;-69
2024/01/22 03:58:23;;;;;;;;;0.25;0.25;;;;;13.82;44.67;101466.50;5098301;27;45548;-70
2024/01/22 04:00:49;;;;;;;;;2.00;1.00;;;;;13.64;44.56;101432.69;5098717;27;45317;-70
2024/01/22 04:03:14;;;;;;;;;0.75;0.75;;;;;13.78;44.51;101451.50;5098687;27;45299;-71
2024/01/22 04:05:42;;;;;;;;;0.00;0.00;;;;;13.78;44.53;101454.13;5098373;27;45364;-71
2024/01/22 04:08:08;;;;;;;;;1.00;1.00;;;;;13.76;44.46;101459.31;5098331;27;45480;-71
2024/01/22 04:10:33;;;;;;;;;1.75;1.00;;;;;13.70;44.46;101459.13;5098296;27;45234;-70
2024/01/22 04:12:59;;;;;;;;;0.75;0.75;;;;;13.70;44.38;101453.88;5113706;27;45395;-70
2024/01/22 04:15:24;;;;;;;;;2.75;1.00;;;;;13.57;44.40;101435.94;5117867;27;45289;-70
2024/01/22 04:17:50;;;;;;;;;1.00;1.00;;;;;13.71;44.64;101456.56;5117568;27;45479;-69
2024/01/22 04:20:16;;;;;;;;;1.00;1.00;;;;;13.70;44.32;101452.13;5117712;27;45271;-70
2024/01/22 04:22:41;;;;;;;;;0.00;0.00;;;;;13.66;44.43;101459.88;5117954;27;45418;-70
2024/01/22 04:25:07;;;;;;;;;0.50;0.00;;;;;13.67;44.58;101459.06;5117566;27;45981;-70
2024/01/22 04:27:34;;;;;;;;;1.00;1.00;;;;;13.64;44.29;101449.31;5117685;27;45242;-70
2024/01/22 04:30:00;;;;;;;;;1.00;1.00;;;;;13.60;44.71;101468.44;5118102;27;46173;-70
2024/01/22 04:32:26;;;;;;;;;1.00;1.00;;;;;13.38;44.66;101431.84;5117665;27;45263;-71
2024/01/22 04:34:52;;;;;;;;;3.00;1.25;;;;;13.58;44.78;101474.50;5117352;27;46003;-70
2024/01/22 04:37:17;;;;;;;;;4.00;2.50;;;;;13.54;44.85;101470.88;5117361;27;45532;-70
2024/01/22 04:39:43;;;;;;;;;1.00;1.00;;;;;13.55;44.57;101467.41;5117267;27;45490;-70
2024/01/22 04:42:09;;;;;;;;;1.50;1.00;;;;;13.56;44.46;101471.81;5117720;27;45423;-70
2024/01/22 04:44:35;;;;;;;;;3.00;2.00;;;;;13.35;44.59;101439.59;5117350;27;45483;-70
2024/01/22 04:47:01;;;;;;;;;0.50;0.50;;;;;13.50;44.53;101469.00;5117706;27;45926;-70
2024/01/22 04:49:27;;;;;;;;;1.00;1.00;;;;;13.46;44.83;101461.84;5117791;27;45357;-70
2024/01/22 04:51:54;;;;;;;;;1.00;1.00;;;;;13.48;44.56;101460.16;5116211;27;45188;-70
2024/01/22 04:54:20;;;;;;;;;1.00;1.00;;;;;13.45;44.67;101471.47;5117157;27;45387;-71
2024/01/22 04:56:46;;;;;;;;;1.00;1.00;;;;;13.47;44.45;101475.03;5117092;27;45508;-70
2024/01/22 04:59:12;;;;;;;;;0.75;0.75;;;;;13.49;44.63;101477.72;5117451;27;45302;-70
2024/01/22 05:01:38;;;;;;;;;2.75;2.00;;;;;13.52;44.07;101473.44;5117811;27;45614;-71
2024/01/22 05:04:04;;;;;;;;;1.50;1.00;;;;;13.56;44.11;101484.94;5117980;27;45310;-71
2024/01/22 05:06:30;;;;;;;;;1.00;1.00;;;;;13.38;44.13;101439.72;5118617;27;45289;-71
2024/01/22 05:08:56;;;;;;;;;2.25;2.25;;;;;13.64;43.77;101482.56;5119441;27;45592;-70
2024/01/22 05:11:23;;;;;;;;;1.50;0.75;;;;;13.64;44.09;101483.44;5118127;27;45843;-70
2024/01/22 05:13:53;;;;;;;;;1.00;1.00;;;;;13.45;43.88;101439.06;5110617;27;46321;-70
2024/01/22 05:16:21;;;;;;;;;1.00;1.00;;;;;13.72;43.58;101471.44;5120527;27;45431;-71
2024/01/22 05:18:48;;;;;;;;;2.00;1.00;;;;;13.77;43.78;101469.00;5120969;27;45524;-71
2024/01/22 05:21:14;;;;;;;;;2.00;1.00;;;;;13.80;43.82;101462.94;5120904;27;45372;-70
2024/01/22 05:23:41;;;;;;;;;1.00;1.00;;;;;13.85;43.50;101469.25;5120361;27;45368;-70
2024/01/22 05:26:07;;;;;;;;;2.25;1.00;;;;;13.66;43.01;101429.25;5120294;27;46526;-71
2024/01/22 05:28:33;;;;;;;;;1.00;1.00;;;;;13.90;43.55;101480.75;5120660;27;45419;-70
2024/01/22 05:31:00;;;;;;;;;1.00;1.00;;;;;13.82;43.58;101466.50;5120925;27;45433;-70
2024/01/22 05:33:26;;;;;;;;;1.00;1.00;;;;;13.88;43.57;101474.56;5120192;27;45545;-70
2024/01/22 05:35:53;;;;;;;;;0.25;0.25;;;;;13.90;43.17;101488.66;5120254;27;45324;-71
2024/01/22 05:38:19;;;;;;;;;1.00;1.00;;;;;13.84;43.16;101475.31;5120281;27;45548;-70
2024/01/22 05:40:45;;;;;;;;;1.50;1.50;;;;;13.87;43.54;101473.69;5120566;27;45498;-70
2024/01/22 05:43:10;;;;;;;;;1.00;1.00;;;;;13.84;43.35;101480.56;5120309;27;46149;-71
2024/01/22 05:45:36;;;;;;;;;2.00;1.50;;;;;13.52;43.45;101430.56;5120236;27;45540;-70
2024/01/22 05:48:02;;;;;;;;;2.50;2.00;;;;;13.80;43.21;101476.94;5117654;27;45462;-71
2024/01/22 05:50:29;;;;;;;;;0.00;0.00;;;;;13.75;43.51;101472.38;5120727;27;45579;-70
2024/01/22 05:52:55;;;;;;;;;1.75;1.75;;;;;13.75;43.76;101478.56;5120154;27;45352;-71
2024/01/22 05:55:21;;;;;;;;;2.00;1.75;;;;;13.75;43.63;101488.16;5119840;27;45345;-70
2024/01/22 05:57:47;;;;;;;;;1.50;1.25;;;;;13.67;43.53;101475.69;5120160;27;45465;-70
2024/01/22 06:00:14;;;;;;;;;0.00;0.00;;;;;13.70;43.92;101486.25;5120116;27;45447;-70
2024/01/22 06:02:40;;;;;;;;;3.25;2.75;;;;;13.63;43.92;101484.31;5118473;27;46436;-71
2024/01/22 06:05:06;;;;;;;;;1.75;1.00;;;;;13.31;44.04;101426.41;5119626;27;45474;-70
2024/01/22 06:07:32;;;;;;;;;1.00;1.00;;;;;13.69;43.82;101489.75;5119819;27;45508;-70
2024/01/22 06:09:58;;;;;;;;;1.50;1.00;;;;;13.68;43.99;101487.06;5120070;27;45645;-70
2024/01/22 06:12:25;;;;;;;;;1.00;1.00;;;;;13.65;44.04;101482.63;5119682;27;45545;-70
2024/01/22 06:14:51;;;;;;;;;1.00;1.00;;;;;13.43;43.99;101457.41;5119520;27;45458;-70
2024/01/22 06:17:17;;;;;;;;;1.00;1.00;;;;;13.61;44.16;101496.50;5119672;27;45374;-70
2024/01/22 06:19:43;;;;;;;;;2.00;2.00;;;;;13.29;44.04;101441.22;5118752;27;45443;-70
2024/01/22 06:22:09;;;;;;;;;1.25;1.00;;;;;13.54;44.06;101491.88;5119442;27;45420;-71
2024/01/22 06:24:36;;;;;;;;;1.00;1.00;;;;;13.52;44.40;101485.69;5120324;27;45553;-71
2024/01/22 06:27:01;;;;;;;;;1.25;1.25;;;;;13.49;44.24;101490.84;5120229;27;45503;-71
2024/01/22 06:29:27;;;;;;;;;2.00;2.00;;;;;13.53;44.47;101497.97;5117374;27;45426;-70
2024/01/22 06:31:53;;;;;;;;;1.00;1.00;;;;;13.20;44.32;101453.97;5119250;27;45333;-70
2024/01/22 06:34:19;;;;;;;;;1.00;1.00;;;;;13.40;44.44;101483.53;5119475;27;45588;-70
2024/01/22 06:36:44;;;;;;;;;1.25;0.75;;;;;13.45;44.75;101504.69;5118201;27;45512;-70
2024/01/22 06:39:10;;;;;;;;;1.25;1.00;;;;;13.50;44.46;101518.88;5119678;27;45435;-71
2024/01/22 06:41:36;;;;;;;;;4.50;2.75;;;;;13.50;44.83;101513.63;5119144;27;45320;-70
2024/01/22 06:44:02;;;;;;;;;1.00;1.00;;;;;13.52;44.73;101522.44;5119785;27;45841;-70
2024/01/22 06:46:28;;;;;;;;;2.00;2.00;;;;;13.48;44.62;101513.56;5119377;27;45398;-70
2024/01/22 06:48:54;;;;;;;;;4.00;4.00;;;;;13.43;44.95;101509.91;5119512;27;45528;-70
2024/01/22 06:51:19;;;;;;;;;2.00;1.50;;;;;13.51;44.89;101523.28;5119018;27;46117;-70
2024/01/22 06:53:45;;;;;;;;;3.50;3.50;;;;;13.50;45.17;101522.38;5119246;27;45462;-70
2024/01/22 06:56:11;;;;;;;;;3.00;2.00;;;;;13.52;44.87;101522.44;5119304;27;45411;-70
2024/01/22 06:58:36;;;;;;;;;3.25;3.00;;;;;13.55;44.83;101522.53;5119256;27;45476;-70
2024/01/22 07:01:04;;;;;;;;;3.50;3.00;;;;;13.56;45.21;101516.44;5119238;27;45857;-70
2024/01/22 07:03:30;;;;;;;;;4.00;3.00;;;;;13.58;45.03;101509.50;5119313;27;45422;-70
2024/01/22 07:05:56;;;;;;;;;3.00;3.00;;;;;13.61;45.23;101512.25;5118827;27;45493;-70
2024/01/22 07:08:21;;;;;;;;;4.00;4.00;;;;;13.67;45.08;101522.94;5119096;27;45332;-70
2024/01/22 07:10:48;;;;;;;;;3.25;3.00;;;;;13.75;44.92;101522.28;5118850;27;45866;-70
2024/01/22 07:13:14;;;;;;;;;3.00;3.00;;;;;13.76;44.71;101529.34;5118702;27;45540;-70
2024/01/22 07:15:40;;;;;;;;;3.00;3.00;;;;;13.80;44.52;101524.22;5118886;27;45414;-70
2024/01/22 07:18:07;;;;;;;;;2.00;2.00;;;;;13.82;45.01;101527.78;5118840;27;45281;-70
2024/01/22 07:20:33;;;;;;;;;1.50;1.50;;;;;13.87;44.81;101535.84;5118724;27;45408;-70
2024/01/22 07:22:59;;;;;;;;;3.00;3.00;;;;;13.85;44.80;101534.91;5118823;27;45318;-70
2024/01/22 07:25:25;;;;;;;;;5.50;4.75;;;;;13.93;44.87;101546.53;5118631;27;45473;-70
2024/01/22 07:27:51;;;;;;;;;5.50;5.50;;;;;13.75;44.67;101515.31;5118690;27;45324;-69
2024/01/22 07:30:17;;;;;;;;;7.50;6.00;;;;;14.01;44.82;101550.31;5115318;27;45499;-70
2024/01/22 07:32:44;;;;;;;;;2.50;2.50;;;;;13.87;44.98;101509.56;5118334;27;45469;-70
2024/01/22 07:35:11;;;;;;;;;0.75;0.75;;;;;14.03;44.70;101535.47;5118584;27;45542;-69
2024/01/22 07:37:41;;;;;;;;;2.75;2.50;;;;;13.94;44.66;101511.53;5115765;27;45330;-70
2024/01/22 07:40:09;;;;;;;;;2.00;2.00;;;;;14.13;44.54;101548.06;5118292;27;45992;-70
2024/01/22 07:42:36;;;;;;;;;1.75;1.00;;;;;14.20;44.58;101535.09;5118052;27;45394;-69
2024/01/22 07:45:03;;;;;;;;;2.00;1.00;;;;;14.08;44.64;101504.97;5118495;27;45392;-70
2024/01/22 07:47:29;;;;;;;;;1.00;1.00;;;;;14.28;44.37;101508.25;5117271;27;45336;-70
2024/01/22 07:49:55;;;;;;;;;0.50;0.50;;;;;14.32;44.39;101530.22;5117911;27;46120;-70
2024/01/22 07:52:24;;;;;;;;;1.50;1.00;;;;;14.35;44.12;101527.69;5118153;27;45490;-69
2024/01/22 07:54:49;;;;;;;;;2.00;1.75;;;;;14.37;44.04;101523.38;5118443;27;45584;-70
2024/01/22 07:57:15;;;;;;;;;1.33;1.00;;;;;14.39;44.15;101537.47;5118393;27;45465;-70
2024/01/22 07:59:42;;;;;;;;;4.50;3.50;;;;;14.45;44.05;101552.53;5117957;27;45570;-70
2024/01/22 08:02:07;;;;;;;;;4.00;2.50;;;;;14.47;44.14;101562.25;5117801;27;45363;-70
2024/01/22 08:04:34;;;;;;;;;2.25;2.00;;;;;14.49;44.25;101565.81;5116627;27;45312;-70
2024/01/22 08:07:00;;;;;;;;;1.00;1.00;;;;;14.53;44.04;101577.31;5118403;27;45404;-70
2024/01/22 08:09:29;;;;;;;;;2.00;1.75;;;;;14.57;44.08;101573.97;5117718;27;45404;-70
2024/01/22 08:11:55;;;;;;;;;0.67;0.67;;;;;14.62;44.00;101556.59;5117759;27;45425;-70
2024/01/22 08:14:21;;;;;;;;;1.00;1.00;;;;;14.69;43.70;101555.03;5117815;27;45387;-69
2024/01/22 08:16:49;;;;;;;;;1.00;1.00;;;;;14.75;43.82;101547.31;5116731;27;45480;-71
2024/01/22 08:19:18;;;;;;;;;2.33;2.00;;;;;14.81;43.78;101542.22;5117673;27;45513;-70
2024/01/22 08:21:44;;;;;;;;;1.00;1.00;;;;;14.88;43.66;101527.50;5117664;27;45480;-68
2024/01/22 08:24:09;;;;;;;;;1.00;1.00;;;;;14.97;43.40;101516.34;5117611;27;45525;-69
2024/01/22 08:26:35;;;;;;;;;2.00;1.00;;;;;15.06;43.64;101516.59;5117616;27;45515;-69
2024/01/22 08:29:01;;;;;;;;;2.25;1.75;;;;;15.02;43.16;101493.66;5117537;27;45634;-69
2024/01/22 08:31:26;;;;;;;;;2.00;2.00;;;;;15.14;42.97;101515.09;5117176;27;45438;-69
2024/01/22 08:33:54;;;;;;;;;2.00;1.00;;;;;15.34;43.07;101533.13;5117399;27;45538;-69
2024/01/22 08:36:20;;;;;;;;;2.33;2.00;;;;;15.17;42.57;101501.09;5115184;27;45533;-70
2024/01/22 08:38:45;;;;;;;;;2.33;2.33;;;;;15.38;42.94;101546.44;5117357;27;45994;-70
2024/01/22 08:41:11;;;;;;;;;2.67;2.00;;;;;15.44;42.67;101548.34;5117333;27;45470;-70
2024/01/22 08:43:37;;;;;;;;;1.00;1.00;;;;;15.26;42.77;101504.88;5115906;27;45440;-69
2024/01/22 08:46:02;;;;;;;;;1.00;1.00;;;;;15.50;42.73;101535.31;5117734;27;45679;-69
2024/01/22 08:48:30;;;;;;;;;2.50;2.50;;;;;15.51;42.72;101552.88;5116499;27;45915;-70
2024/01/22 08:50:56;;;;;;;;;2.33;2.33;;;;;15.55;42.75;101564.41;5117085;27;45328;-70
2024/01/22 08:53:22;;;;;;;;;3.00;2.75;;;;;15.54;42.57;101560.88;5117899;27;45493;-70
2024/01/22 08:55:48;;;;;;;;;2.75;2.00;;;;;15.56;42.84;101561.81;5117386;27;45602;-69
2024/01/22 08:58:15;;;;;;;;;1.00;1.00;;;;;15.59;42.87;101564.50;5116534;27;46541;-70
2024/01/22 09:00:41;;;;;;;;;2.00;1.00;;;;;15.64;42.72;101570.78;5116439;27;45693;-69
2024/01/22 09:03:07;;;;;;;;;1.00;1.00;;;;;15.62;42.84;101551.44;5116673;27;45548;-69
2024/01/22 09:05:33;;;;;;;;;2.00;1.00;;;;;15.58;42.71;101544.31;5117312;27;45628;-69
2024/01/22 09:07:59;;;;;;;;;2.00;1.00;;;;;15.80;42.65;101569.47;5117233;27;46534;-69
2024/01/22 09:10:26;;;;;;;;;2.00;1.00;;;;;15.61;42.29;101538.22;5116807;27;45614;-70
2024/01/22 09:12:52;;;;;;;;;0.67;0.67;;;;;15.88;42.48;101580.22;5117068;27;45401;-70
2024/01/22 09:15:18;;;;;;;;;1.00;1.00;;;;;15.89;42.55;101587.25;5117205;27;45355;-70
2024/01/22 09:17:44;;;;;;;;;3.00;2.00;;;;;16.00;42.40;101583.13;5116546;27;45307;-70
2024/01/22 09:20:11;;;;;;;;;1.00;1.00;;;;;16.07;42.32;101592.06;5116788;27;45338;-70
2024/01/22 09:22:39;;;;;;;;;1.00;1.00;;;;;16.09;42.27;101593.91;5116835;27;45243;-71
2024/01/22 09:25:05;;;;;;;;;1.00;1.00;;;;;16.10;42.42;101603.59;5116987;27;45414;-71
2024/01/22 09:27:31;;;;;;;;;3.00;1.00;;;;;16.10;42.59;101594.78;5117006;27;45769;-71
2024/01/22 09:29:57;;;;;;;;;2.00;1.67;;;;;16.12;43.14;101600.13;5113916;27;45478;-71
2024/01/22 09:32:23;;;;;;;;;4.00;3.00;;;;;16.18;43.57;101601.13;5116639;27;45321;-71
2024/01/22 09:34:48;;;;;;;;;1.33;1.33;;;;;16.28;43.74;101589.06;5116995;27;45324;-71
2024/01/22 09:37:14;;;;;;;;;2.67;2.67;;;;;16.29;43.51;101561.81;5116834;27;46059;-71
2024/01/22 09:39:40;;;;;;;;;3.67;3.00;;;;;16.54;43.07;101565.91;5116932;27;45427;-71
2024/01/22 09:42:06;;;;;;;;;3.00;2.00;;;;;16.62;42.51;101547.63;5117864;27;45301;-71
2024/01/22 09:44:34;;;;;;;;;2.00;2.00;;;;;17.18;41.70;101552.28;5117498;27;45467;-71
2024/01/22 09:47:01;;;;;;;;;2.00;2.00;;;;;17.32;41.13;101553.44;5116423;27;45536;-71
2024/01/22 09:49:26;;;;;;;;;2.67;2.00;;;;;17.50;41.22;101551.09;5116755;27;45474;-71
2024/01/22 09:51:52;;;;;;;;;4.33;2.67;;;;;18.32;40.36;101549.78;5117111;27;45388;-71
2024/01/22 09:54:19;;;;;;;;;1.33;1.33;;;;;18.71;39.05;101560.91;5117717;27;45560;-71
2024/01/22 09:56:54;;;;;;;;;3.00;2.67;;;;;18.64;38.58;101560.81;5120927;27;46204;-71
2024/01/22 09:59:25;;;;;;;;;1.00;1.00;;;;;18.58;38.36;101568.69;5120682;27;45411;-71
2024/01/22 10:01:52;;;;;;;;;2.00;1.67;;;;;18.57;38.49;101571.31;5121209;27;45531;-71
2024/01/22 10:04:19;;;;;;;;;1.00;1.00;;;;;18.52;38.50;101536.81;5121089;27;45402;-71
2024/01/22 10:06:46;;;;;;;;;1.67;1.67;;;;;18.82;38.33;101573.44;5120437;27;46302;-71
2024/01/22 10:09:15;;;;;;;;;2.00;2.00;;;;;18.88;38.38;101572.63;5120730;27;45296;-71
2024/01/22 10:11:47;;;;;;;;;1.33;1.33;;;;;18.81;37.95;101579.59;5121044;27;45476;-71
2024/01/22 10:14:14;;;;;;;;;2.00;2.00;;;;;18.73;38.26;101586.50;5121259;27;45303;-71
2024/01/22 10:16:39;;;;;;;;;2.00;2.00;;;;;18.62;38.22;101596.06;5119620;27;46186;-71
2024/01/22 10:19:08;;;;;;;;;1.00;1.00;;;;;18.52;38.34;101602.09;5120861;27;45423;-71
2024/01/22 10:21:35;;;;;;;;;1.67;1.67;;;;;18.41;38.64;101600.19;5121059;27;45327;-71
2024/01/22 10:24:02;;;;;;;;;1.33;1.33;;;;;18.28;38.52;101601.78;5120875;27;45592;-71
2024/01/22 10:26:32;;;;;;;;;2.00;1.67;;;;;18.22;39.02;101614.00;5120341;27;46027;-71
2024/01/22 10:29:18;;;;;;;;;2.00;1.33;;;;;18.20;38.97;101613.09;5120181;27;45504;-71
2024/01/22 10:32:02;;;;;;;;;1.00;1.00;;;;;18.23;39.07;101613.16;5120558;27;45714;-71
2024/01/22 10:34:43;;;;;;;;;2.00;2.00;;;;;18.27;39.11;101613.19;5104358;27;45228;-71
2024/01/22 10:37:13;;;;;;;;;2.00;2.00;;;;;18.39;38.88;101625.72;5099764;27;46033;-71
2024/01/22 10:39:41;;;;;;;;;2.33;1.67;;;;;18.56;38.77;101627.72;5099771;27;45294;-71
2024/01/22 10:42:14;;;;;;;;;4.67;3.00;;;;;18.69;38.83;101637.63;5099885;27;45422;-71
2024/01/22 10:44:42;;;;;;;;;1.00;1.00;;;;;18.73;38.31;101636.81;5099946;27;45221;-71
2024/01/22 10:47:09;;;;;;;;;2.00;2.00;;;;;18.73;38.33;101620.03;5114310;27;45613;-71
2024/01/22 10:49:35;;;;;;;;;1.00;1.00;;;;;18.54;38.46;101606.53;5119553;27;45430;-71
2024/01/22 10:52:02;;;;;;;;;1.00;1.00;;;;;18.53;38.67;101585.38;5119447;27;45577;-71
2024/01/22 10:54:29;;;;;;;;;2.00;2.00;;;;;18.68;38.65;101596.13;5119579;27;45661;-71
2024/01/22 10:57:05;;;;;;;;;1.00;1.00;;;;;18.40;38.57;101556.09;5119840;27;45435;-71
2024/01/22 10:59:36;;;;;;;;;2.00;2.00;;;;;18.49;38.26;101555.31;5119767;27;45545;-71
2024/01/22 11:02:06;;;;;;;;;3.00;3.00;;;;;18.78;38.53;101582.19;5120049;27;45304;-71
2024/01/22 11:04:37;;;;;;;;;3.00;3.00;;;;;18.94;38.29;101591.22;5120331;27;45402;-71
2024/01/22 11:07:06;;;;;;;;;2.67;2.67;;;;;18.94;38.16;101548.88;5119238;27;45515;-71
2024/01/22 11:09:33;;;;;;;;;3.67;3.67;;;;;19.43;38.13;101578.50;5119640;27;45354;-71
2024/01/22 11:12:14;;;;;;;;;2.00;2.00;;;;;19.65;38.16;101576.94;5120053;27;45365;-71
2024/01/22 11:14:41;;;;;;;;;1.00;1.00;;;;;19.63;37.99;101560.13;5120266;27;45281;-71
2024/01/22 11:17:09;;;;;;;;;2.00;2.00;;;;;19.89;37.44;101585.16;5120122;27;46139;-71
2024/01/22 11:19:36;;;;;;;;;1.00;0.67;;;;;19.94;37.06;101572.81;5120295;27;45320;-71
2024/01/22 11:22:23;;;;;;;;;2.67;1.67;;;;;19.78;37.08;101532.91;5118449;27;45405;-72